Guadalupe, Texas
Current Conditions -  °F | °C
As of 4:51 PM on Saturday 20 Dec 2014 (Local Time) from KVCT Reporting Station
Overcast Overcast  
Wind Chill: 56°   Ceiling: 1500
Heat Index: 56°   Visibility: 10mi
Dew Point: 51°   Wind: 9mph
Humidity: 84%   Direction: 60°ENE
Pressure: 30.15"   Gusts: NA
Location:  28.7094°N, 97.0351°W
Report Text: KVCT 202251Z 06008KT 10SM OVC015 13/11 A3015 RMK AO2 SLP209 T01330106 $
Loading
Personal Weather Stations






























Interactive Weather Map New forecast layout! Learn more

10-Day Weather Forecast

Advertisements
Track Severe Weather on mobile